createdAt,value
2024-01-30T00:00:14.093Z,96517.81
2024-01-30T00:02:16.131Z,96524.31
2024-01-30T00:04:18.355Z,96522.03
2024-01-30T00:06:22.278Z,96522.19
2024-01-30T00:08:24.372Z,96531.78
2024-01-30T00:10:26.428Z,96529.34
2024-01-30T00:12:29.066Z,96519.03
2024-01-30T00:14:33.630Z,96519.53
2024-01-30T00:16:35.485Z,96522.44
2024-01-30T00:18:37.495Z,96523.09
2024-01-30T00:20:39.488Z,96527.38
2024-01-30T00:22:41.283Z,96526.69
2024-01-30T00:24:43.069Z,96530.75
2024-01-30T00:26:45.309Z,96528.13
2024-01-30T00:28:47.278Z,96530.56
2024-01-30T00:30:50.535Z,96523.44
2024-01-30T00:32:52.598Z,96521.94
2024-01-30T00:34:54.514Z,96521.72
2024-01-30T00:36:56.399Z,96520.59
2024-01-30T00:38:58.625Z,96524.25
2024-01-30T00:41:01.949Z,96521.50
2024-01-30T00:43:03.850Z,96517.66
2024-01-30T00:45:06.123Z,96522.16
2024-01-30T00:47:08.132Z,96522.84
2024-01-30T00:49:10.425Z,96517.41
2024-01-30T00:51:13.038Z,96524.91
2024-01-30T00:53:17.470Z,96514.28
2024-01-30T00:55:21.176Z,96520.69
2024-01-30T00:57:24.282Z,96520.78
2024-01-30T00:59:27.430Z,96518.19
2024-01-30T01:01:30.946Z,96521.44
2024-01-30T01:03:32.821Z,96526.19
2024-01-30T01:05:34.710Z,96520.88
2024-01-30T01:07:39.077Z,96522.56
2024-01-30T01:09:40.966Z,96511.31
2024-01-30T01:11:42.873Z,96521.25
2024-01-30T01:13:46.004Z,96516.81
2024-01-30T01:15:47.815Z,96519.28
2024-01-30T01:17:50.254Z,96514.03
2024-01-30T01:19:52.270Z,96517.28
2024-01-30T01:21:54.385Z,96518.50
2024-01-30T01:23:56.293Z,96523.16
2024-01-30T01:26:00.878Z,96525.44
2024-01-30T01:28:05.448Z,96522.78
2024-01-30T01:30:10.554Z,96519.28
2024-01-30T01:32:12.693Z,96521.84
2024-01-30T01:34:15.063Z,96521.28
2024-01-30T01:36:16.917Z,96522.34
2024-01-30T01:38:18.696Z,96517.19
2024-01-30T01:40:20.634Z,96522.34
2024-01-30T01:42:24.976Z,96526.63
2024-01-30T01:44:27.788Z,96525.59
2024-01-30T01:46:32.685Z,96514.91
2024-01-30T01:48:34.612Z,96521.94
2024-01-30T01:50:37.381Z,96508.44
2024-01-30T01:52:40.455Z,96517.16
2024-01-30T01:54:43.177Z,96512.72
2024-01-30T01:56:45.251Z,96524.75
2024-01-30T01:58:47.921Z,96525.75
2024-01-30T02:00:49.977Z,96524.22
2024-01-30T02:02:52.368Z,96530.22
2024-01-30T02:04:54.280Z,96527.38
2024-01-30T02:06:56.171Z,96526.16
2024-01-30T02:08:58.196Z,96528.81
2024-01-30T02:11:01.249Z,96535.41
2024-01-30T02:13:03.078Z,96537.97
2024-01-30T02:15:06.333Z,96524.91
2024-01-30T02:17:08.109Z,96531.50
2024-01-30T02:19:10.716Z,96535.00
2024-01-30T02:21:13.036Z,96532.06
2024-01-30T02:23:17.058Z,96534.28
2024-01-30T02:25:19.691Z,96531.72
2024-01-30T02:27:21.933Z,96527.44
2024-01-30T02:29:24.175Z,96519.63
2024-01-30T02:31:27.021Z,96518.97
2024-01-30T02:33:29.000Z,96517.91
2024-01-30T02:35:30.807Z,96521.53
2024-01-30T02:37:32.548Z,96517.16
2024-01-30T02:39:34.287Z,96520.97
2024-01-30T02:41:36.453Z,96523.00
2024-01-30T02:43:38.340Z,96519.41
2024-01-30T02:45:40.950Z,96519.72
2024-01-30T02:47:43.069Z,96518.75
2024-01-30T02:49:44.948Z,96528.84
2024-01-30T02:51:47.031Z,96523.00
2024-01-30T02:53:50.006Z,96521.44
2024-01-30T02:55:51.721Z,96516.72
2024-01-30T02:57:54.266Z,96526.78
2024-01-30T02:59:56.354Z,96528.09
2024-01-30T03:01:58.536Z,96524.41
2024-01-30T03:04:00.658Z,96521.66
2024-01-30T03:06:03.120Z,96525.78
2024-01-30T03:08:06.552Z,96516.88
2024-01-30T03:10:10.333Z,96511.19
2024-01-30T03:12:12.915Z,96513.13
2024-01-30T03:14:14.720Z,96513.34
2024-01-30T03:16:16.694Z,96518.28
2024-01-30T03:18:19.176Z,96513.44
2024-01-30T03:20:20.984Z,96512.25
2024-01-30T03:22:23.987Z,96511.06
2024-01-30T03:24:25.725Z,96513.06
2024-01-30T03:26:27.493Z,96516.94
2024-01-30T03:28:29.456Z,96517.38
2024-01-30T03:30:31.369Z,96520.59
2024-01-30T03:32:34.274Z,96514.38
2024-01-30T03:34:36.187Z,96507.03
2024-01-30T03:36:37.984Z,96508.22
2024-01-30T03:38:39.695Z,96506.31
2024-01-30T03:40:43.017Z,96507.59
2024-01-30T03:42:44.980Z,96510.59
2024-01-30T03:44:47.076Z,96507.81
2024-01-30T03:46:50.226Z,96502.53
2024-01-30T03:48:52.177Z,96500.88
2024-01-30T03:50:54.166Z,96501.03
2024-01-30T03:52:56.061Z,96495.44
2024-01-30T03:54:58.521Z,96499.13
2024-01-30T03:57:00.522Z,96498.13
2024-01-30T03:59:04.032Z,96500.13
2024-01-30T04:01:07.012Z,96494.91
2024-01-30T04:03:09.914Z,96491.25
2024-01-30T04:05:12.008Z,96491.19
2024-01-30T04:07:13.841Z,96496.53
2024-01-30T04:09:16.051Z,96492.00
2024-01-30T04:11:20.846Z,96496.41
2024-01-30T04:13:22.650Z,96489.56
2024-01-30T04:15:24.631Z,96494.13
2024-01-30T04:17:26.427Z,96487.72
2024-01-30T04:19:28.383Z,96494.44
2024-01-30T04:21:30.308Z,96493.13
2024-01-30T04:23:32.188Z,96492.84
2024-01-30T04:25:34.119Z,96487.78
2024-01-30T04:27:35.857Z,96494.84
2024-01-30T04:29:37.586Z,96498.56
2024-01-30T04:31:39.731Z,96498.78
2024-01-30T04:33:44.888Z,96511.97
2024-01-30T04:35:47.150Z,96500.88
2024-01-30T04:37:49.975Z,96508.59
2024-01-30T04:39:53.560Z,96501.41
2024-01-30T04:41:55.779Z,96500.97
2024-01-30T04:43:58.257Z,96508.78
2024-01-30T04:46:00.309Z,96510.94
2024-01-30T04:48:02.755Z,96506.56
2024-01-30T04:50:06.514Z,96512.50
2024-01-30T04:52:09.440Z,96513.78
2024-01-30T04:54:11.278Z,96521.47
2024-01-30T04:56:13.389Z,96523.38
2024-01-30T04:58:16.728Z,96527.38
2024-01-30T05:00:18.922Z,96529.47
2024-01-30T05:02:20.776Z,96525.50
2024-01-30T05:04:23.325Z,96529.94
2024-01-30T05:06:27.175Z,96529.34
2024-01-30T05:08:31.835Z,96525.97
2024-01-30T05:10:35.042Z,96537.34
2024-01-30T05:12:36.863Z,96532.81
2024-01-30T05:14:38.853Z,96541.53
2024-01-30T05:16:40.840Z,96537.09
2024-01-30T05:18:43.477Z,96537.91
2024-01-30T05:20:45.229Z,96537.22
2024-01-30T05:22:49.537Z,96536.13
2024-01-30T05:24:51.464Z,96540.88
2024-01-30T05:26:55.970Z,96545.63
2024-01-30T05:29:01.222Z,96535.19
2024-01-30T05:31:03.097Z,96541.81
2024-01-30T05:33:05.851Z,96531.19
2024-01-30T05:35:09.202Z,96538.13
2024-01-30T05:37:16.060Z,96533.19
2024-01-30T05:39:17.879Z,96535.00
2024-01-30T05:41:22.255Z,96542.56
2024-01-30T05:43:26.875Z,96540.69
2024-01-30T05:45:29.111Z,96533.06
2024-01-30T05:47:31.053Z,96533.31
2024-01-30T05:49:33.389Z,96535.75
2024-01-30T05:51:35.978Z,96538.88
2024-01-30T05:53:48.495Z,96534.50
2024-01-30T05:55:50.310Z,96537.59
2024-01-30T05:57:53.570Z,96538.31
2024-01-30T05:59:56.053Z,96536.31
2024-01-30T06:02:00.573Z,96531.59
2024-01-30T06:04:07.466Z,96523.31
2024-01-30T06:06:09.370Z,96535.88
2024-01-30T06:08:12.648Z,96532.22
2024-01-30T06:10:14.675Z,96530.31
2024-01-30T06:12:16.751Z,96532.72
2024-01-30T06:14:20.498Z,96533.88
2024-01-30T06:16:24.280Z,96535.94
2024-01-30T06:18:27.746Z,96542.75
2024-01-30T06:20:29.879Z,96540.44
2024-01-30T06:22:31.713Z,96540.28
2024-01-30T06:24:34.866Z,96538.63
2024-01-30T06:26:39.077Z,96549.75
2024-01-30T06:28:42.012Z,96551.75
2024-01-30T06:30:45.452Z,96547.78
2024-01-30T06:32:49.776Z,96555.06
2024-01-30T06:34:52.005Z,96550.06
2024-01-30T06:36:53.977Z,96542.06
2024-01-30T06:38:58.277Z,96547.28
2024-01-30T06:41:00.223Z,96541.31
2024-01-30T06:43:03.730Z,96549.25
2024-01-30T06:45:05.924Z,96546.06
2024-01-30T06:47:11.232Z,96546.81
2024-01-30T06:49:13.329Z,96550.03
2024-01-30T06:51:18.057Z,96551.28
2024-01-30T06:53:20.152Z,96552.63
2024-01-30T06:55:24.369Z,96549.19
2024-01-30T06:57:27.244Z,96551.88
2024-01-30T06:59:29.134Z,96554.88
2024-01-30T07:01:32.513Z,96552.00
2024-01-30T07:03:34.454Z,96554.44
2024-01-30T07:05:36.677Z,96551.44
2024-01-30T07:07:41.460Z,96553.28
2024-01-30T07:09:45.097Z,96563.00
2024-01-30T07:11:48.324Z,96556.72
2024-01-30T07:13:50.287Z,96551.31
2024-01-30T07:15:52.382Z,96555.69
2024-01-30T07:17:54.946Z,96552.75
2024-01-30T07:19:57.431Z,96562.28
2024-01-30T07:21:59.522Z,96558.34
2024-01-30T07:24:01.749Z,96561.31
2024-01-30T07:26:03.935Z,96552.22
2024-01-30T07:28:07.090Z,96559.41
2024-01-30T07:30:10.290Z,96559.41
2024-01-30T07:32:12.106Z,96560.25
2024-01-30T07:34:14.156Z,96557.22
2024-01-30T07:36:18.969Z,96549.03
2024-01-30T07:38:22.074Z,96554.56
2024-01-30T07:40:24.137Z,96557.09
2024-01-30T07:42:26.049Z,96551.03
2024-01-30T07:44:27.816Z,96554.56
2024-01-30T07:46:30.128Z,96556.75
2024-01-30T07:48:33.530Z,96553.84
2024-01-30T07:50:39.902Z,96542.25
2024-01-30T07:52:41.871Z,96537.94
2024-01-30T07:54:44.337Z,96548.88
2024-01-30T07:56:46.296Z,96544.94
2024-01-30T07:58:49.187Z,96549.72
2024-01-30T08:00:52.979Z,96550.22
2024-01-30T08:02:56.749Z,96552.31
2024-01-30T08:04:58.788Z,96549.59
2024-01-30T08:07:00.875Z,96537.16
2024-01-30T08:09:04.962Z,96534.47
2024-01-30T08:11:06.706Z,96539.63
2024-01-30T08:13:10.223Z,96536.34
2024-01-30T08:15:14.233Z,96539.06
2024-01-30T08:17:15.928Z,96535.00
2024-01-30T08:19:18.009Z,96540.97
2024-01-30T08:21:19.802Z,96539.25
2024-01-30T08:23:22.974Z,96543.78
2024-01-30T08:25:26.513Z,96540.50
2024-01-30T08:27:28.814Z,96537.88
2024-01-30T08:29:31.800Z,96534.13
2024-01-30T08:31:37.475Z,96541.56
2024-01-30T08:33:40.543Z,96541.06
2024-01-30T08:35:47.329Z,96549.78
2024-01-30T08:37:49.276Z,96536.44
2024-01-30T08:39:51.487Z,96541.91
2024-01-30T08:41:55.818Z,96547.84
2024-01-30T08:43:57.798Z,96544.91
2024-01-30T08:46:03.047Z,96541.97
2024-01-30T08:48:07.140Z,96543.94
2024-01-30T08:50:09.271Z,96550.88
2024-01-30T08:52:14.204Z,96553.75
2024-01-30T08:54:19.775Z,96555.19
2024-01-30T08:56:23.686Z,96554.38
2024-01-30T08:58:25.513Z,96562.63
2024-01-30T09:00:27.626Z,96566.22
2024-01-30T09:02:29.534Z,96568.25
2024-01-30T09:04:31.554Z,96566.66
2024-01-30T09:06:34.396Z,96564.88
2024-01-30T09:08:37.891Z,96568.41
2024-01-30T09:10:40.125Z,96566.16
2024-01-30T09:12:42.023Z,96571.31
2024-01-30T09:14:44.096Z,96563.56
2024-01-30T09:16:47.462Z,96561.13
2024-01-30T09:18:49.564Z,96561.53
2024-01-30T09:20:51.625Z,96555.63
2024-01-30T09:22:53.549Z,96554.03
2024-01-30T09:24:57.947Z,96548.63
2024-01-30T09:26:59.871Z,96543.97
2024-01-30T09:29:01.751Z,96540.47
2024-01-30T09:31:05.937Z,96548.72
2024-01-30T09:33:08.242Z,96544.84
2024-01-30T09:35:11.496Z,96542.75
2024-01-30T09:37:16.714Z,96541.19
2024-01-30T09:39:21.570Z,96534.19
2024-01-30T09:41:25.533Z,96536.13
2024-01-30T09:43:27.716Z,96533.75
2024-01-30T09:45:30.585Z,96552.53
2024-01-30T09:47:43.792Z,96543.75
2024-01-30T09:49:45.849Z,96542.91
2024-01-30T09:51:49.497Z,96532.47
2024-01-30T09:53:51.806Z,96531.03
2024-01-30T09:55:54.724Z,96534.59
2024-01-30T09:57:56.466Z,96538.50
2024-01-30T09:59:59.095Z,96535.09
2024-01-30T10:02:02.194Z,96533.53
2024-01-30T10:04:04.878Z,96534.19
2024-01-30T10:06:07.879Z,96529.16
2024-01-30T10:08:09.939Z,96531.59
2024-01-30T10:10:11.976Z,96526.94
2024-01-30T10:12:14.466Z,96520.56
2024-01-30T10:14:17.450Z,96510.25
2024-01-30T10:16:19.280Z,96515.25
2024-01-30T10:18:21.136Z,96511.13
2024-01-30T10:20:23.916Z,96512.06
2024-01-30T10:22:25.886Z,96506.19
2024-01-30T10:24:31.033Z,96508.53
2024-01-30T10:26:35.760Z,96513.50
2024-01-30T10:28:38.247Z,96525.53
2024-01-30T10:30:40.236Z,96514.56
2024-01-30T10:32:42.260Z,96521.16
2024-01-30T10:34:45.192Z,96524.13
2024-01-30T10:36:51.445Z,96517.91
2024-01-30T10:38:54.560Z,96511.25
2024-01-30T10:41:00.607Z,96532.78
2024-01-30T10:43:06.004Z,96522.00
2024-01-30T10:45:14.780Z,96518.28
2024-01-30T10:47:19.797Z,96510.81
2024-01-30T10:49:23.598Z,96509.44
2024-01-30T10:51:26.780Z,96504.78
2024-01-30T10:53:31.941Z,96505.97
2024-01-30T10:55:37.772Z,96489.91
2024-01-30T10:57:39.855Z,96494.22
2024-01-30T10:59:43.172Z,96494.19
2024-01-30T11:01:45.528Z,96492.28
2024-01-30T11:03:47.491Z,96481.00
2024-01-30T11:05:55.448Z,96486.00
2024-01-30T11:07:58.127Z,96486.00
2024-01-30T11:10:00.106Z,96479.19
2024-01-30T11:12:02.584Z,96469.88
2024-01-30T11:14:04.625Z,96479.53
2024-01-30T11:16:07.929Z,96476.53
2024-01-30T11:18:17.226Z,96474.75
2024-01-30T11:20:37.017Z,96475.28
2024-01-30T11:22:38.961Z,96476.59
2024-01-30T11:24:44.927Z,96472.78
2024-01-30T11:26:46.975Z,96478.59
2024-01-30T11:28:54.545Z,96479.50
2024-01-30T11:31:13.903Z,96472.16
2024-01-30T11:33:16.286Z,96470.59
2024-01-30T11:35:19.226Z,96466.91
2024-01-30T11:37:24.321Z,96472.00
2024-01-30T11:39:27.600Z,96470.31
2024-01-30T11:41:29.763Z,96480.44
2024-01-30T11:43:31.656Z,96469.66
2024-01-30T11:45:34.936Z,96467.47
2024-01-30T11:47:40.594Z,96470.56
2024-01-30T11:49:47.285Z,96466.59
2024-01-30T11:51:53.219Z,96462.44
2024-01-30T11:53:55.247Z,96460.75
2024-01-30T11:55:57.060Z,96473.03
2024-01-30T11:57:59.931Z,96459.47
2024-01-30T12:00:11.636Z,96460.19
2024-01-30T12:02:18.933Z,96452.16
2024-01-30T12:04:20.777Z,96448.25
2024-01-30T12:06:23.800Z,96445.16
2024-01-30T12:08:26.312Z,96446.00
2024-01-30T12:10:28.834Z,96434.53
2024-01-30T12:12:31.406Z,96427.78
2024-01-30T12:14:33.272Z,96426.72
2024-01-30T12:16:36.493Z,96423.09
2024-01-30T12:18:41.084Z,96419.03
2024-01-30T12:20:42.851Z,96418.16
2024-01-30T12:22:48.822Z,96418.50
2024-01-30T12:24:50.693Z,96418.16
2024-01-30T12:26:53.366Z,96407.25
2024-01-30T12:29:02.945Z,96412.34
2024-01-30T12:31:10.321Z,96408.03
2024-01-30T12:33:18.535Z,96409.28
2024-01-30T12:35:21.739Z,96411.50
2024-01-30T12:37:30.815Z,96407.03
2024-01-30T12:39:33.298Z,96402.91
2024-01-30T12:41:36.528Z,96408.66
2024-01-30T12:43:39.399Z,96400.59
2024-01-30T12:45:43.693Z,96404.44
2024-01-30T12:47:45.751Z,96405.59
2024-01-30T12:49:49.506Z,96404.09
2024-01-30T12:51:51.320Z,96405.09
2024-01-30T12:53:53.493Z,96392.19
2024-01-30T12:55:55.682Z,96398.50
2024-01-30T12:57:57.776Z,96396.22
2024-01-30T13:00:02.042Z,96392.28
2024-01-30T13:02:05.563Z,96388.28
2024-01-30T13:04:07.545Z,96390.28
2024-01-30T13:06:09.958Z,96389.19
2024-01-30T13:08:13.078Z,96391.00
2024-01-30T13:10:15.095Z,96383.94
2024-01-30T13:12:19.165Z,96381.94
2024-01-30T13:14:20.790Z,96382.00
2024-01-30T13:16:22.708Z,96382.34
2024-01-30T13:18:24.560Z,96375.88
2024-01-30T13:20:26.974Z,96378.75
2024-01-30T13:22:28.897Z,96376.66
2024-01-30T13:24:33.119Z,96379.59
2024-01-30T13:26:35.053Z,96382.06
2024-01-30T13:28:37.885Z,96379.13
2024-01-30T13:30:39.803Z,96374.38
2024-01-30T13:32:42.901Z,96374.81
2024-01-30T13:34:44.887Z,96373.63
2024-01-30T13:36:47.521Z,96374.94
2024-01-30T13:38:49.492Z,96378.16
2024-01-30T13:40:51.678Z,96378.69
2024-01-30T13:42:53.680Z,96376.88
2024-01-30T13:44:56.167Z,96384.56
2024-01-30T13:46:58.313Z,96387.06
2024-01-30T13:49:00.623Z,96385.94
2024-01-30T13:51:03.354Z,96384.91
2024-01-30T13:53:08.616Z,96377.72
2024-01-30T13:55:12.564Z,96378.56
2024-01-30T13:57:15.472Z,96384.00
2024-01-30T13:59:26.919Z,96381.13
2024-01-30T14:01:30.899Z,96381.13
2024-01-30T14:03:33.331Z,96381.41
2024-01-30T14:05:35.299Z,96388.44
2024-01-30T14:07:44.346Z,96386.53
2024-01-30T14:09:49.494Z,96376.22
2024-01-30T14:11:53.100Z,96373.84
2024-01-30T14:13:54.892Z,96382.97
2024-01-30T14:15:57.098Z,96384.06
2024-01-30T14:17:59.725Z,96376.25
2024-01-30T14:20:04.371Z,96371.13
2024-01-30T14:22:07.562Z,96380.81
2024-01-30T14:24:09.436Z,96382.22
2024-01-30T14:26:11.364Z,96379.81
2024-01-30T14:28:13.182Z,96379.03
2024-01-30T14:30:14.932Z,96380.47
2024-01-30T14:32:16.746Z,96380.03
2024-01-30T14:34:19.786Z,96382.78
2024-01-30T14:36:21.767Z,96383.63
2024-01-30T14:38:29.665Z,96383.91
2024-01-30T14:40:33.427Z,96388.75
2024-01-30T14:42:36.073Z,96381.22
2024-01-30T14:44:40.760Z,96376.94
2024-01-30T14:46:43.129Z,96377.31
2024-01-30T14:48:45.231Z,96375.13
2024-01-30T14:50:49.194Z,96379.59
2024-01-30T14:52:50.937Z,96383.78
2024-01-30T14:54:52.933Z,96382.06
2024-01-30T14:56:55.385Z,96395.72
2024-01-30T14:58:57.921Z,96385.06
2024-01-30T15:01:00.385Z,96388.78
2024-01-30T15:03:03.347Z,96389.97
2024-01-30T15:05:06.096Z,96385.69
2024-01-30T15:07:08.291Z,96397.66
2024-01-30T15:09:11.328Z,96385.91
2024-01-30T15:11:13.628Z,96386.59
2024-01-30T15:13:17.360Z,96384.72
2024-01-30T15:15:20.025Z,96384.44
2024-01-30T15:17:24.651Z,96389.00
2024-01-30T15:19:26.622Z,96391.59
2024-01-30T15:21:30.509Z,96389.53
2024-01-30T15:23:32.758Z,96391.88
2024-01-30T15:25:35.805Z,96392.91
2024-01-30T15:27:38.085Z,96391.13
2024-01-30T15:29:39.926Z,96395.16
2024-01-30T15:31:41.738Z,96394.19
2024-01-30T15:33:44.040Z,96393.59
2024-01-30T15:35:45.881Z,96397.31
2024-01-30T15:37:48.197Z,96391.53
2024-01-30T15:39:50.801Z,96396.66
2024-01-30T15:41:54.118Z,96397.13
2024-01-30T15:43:55.954Z,96397.28
2024-01-30T15:45:58.109Z,96405.19
2024-01-30T15:48:01.306Z,96407.03
2024-01-30T15:50:03.416Z,96403.41
2024-01-30T15:52:06.459Z,96408.31
2024-01-30T15:54:11.178Z,96409.00
2024-01-30T15:56:13.020Z,96414.13
2024-01-30T15:58:16.326Z,96413.56
2024-01-30T16:00:18.317Z,96403.00
2024-01-30T16:02:21.803Z,96409.78
2024-01-30T16:04:25.340Z,96415.28
2024-01-30T16:06:27.297Z,96420.06
2024-01-30T16:08:29.279Z,96421.19
2024-01-30T16:10:35.421Z,96419.97
2024-01-30T16:12:37.605Z,96425.47
2024-01-30T16:14:39.425Z,96427.84
2024-01-30T16:16:43.139Z,96422.09
2024-01-30T16:18:45.564Z,96427.72
2024-01-30T16:20:47.756Z,96431.50
2024-01-30T16:22:56.962Z,96433.31
2024-01-30T16:24:59.452Z,96437.84
2024-01-30T16:27:01.713Z,96430.19
2024-01-30T16:29:03.903Z,96437.16
2024-01-30T16:31:06.155Z,96430.84
2024-01-30T16:33:08.223Z,96427.09
2024-01-30T16:35:11.686Z,96434.53
2024-01-30T16:37:14.632Z,96437.03
2024-01-30T16:39:18.368Z,96436.59
2024-01-30T16:41:22.116Z,96434.53
2024-01-30T16:43:26.121Z,96439.44
2024-01-30T16:45:28.030Z,96436.84
2024-01-30T16:47:39.688Z,96440.69
2024-01-30T16:49:41.658Z,96445.19
2024-01-30T16:51:44.066Z,96449.84
2024-01-30T16:53:45.958Z,96442.78
2024-01-30T16:55:51.147Z,96440.31
2024-01-30T16:57:53.656Z,96439.81
2024-01-30T16:59:55.490Z,96441.78
2024-01-30T17:01:57.456Z,96443.53
2024-01-30T17:04:00.020Z,96441.97
2024-01-30T17:06:06.717Z,96445.03
2024-01-30T17:08:09.178Z,96438.91
2024-01-30T17:10:14.522Z,96440.41
2024-01-30T17:12:16.918Z,96442.56
2024-01-30T17:14:19.060Z,96444.31
2024-01-30T17:16:22.498Z,96444.81
2024-01-30T17:18:24.790Z,96439.75
2024-01-30T17:20:29.036Z,96440.13
2024-01-30T17:22:32.244Z,96443.31
2024-01-30T17:24:42.490Z,96436.53
2024-01-30T17:26:51.682Z,96440.47
2024-01-30T17:28:53.733Z,96444.44
2024-01-30T17:30:56.080Z,96445.13
2024-01-30T17:33:00.436Z,96445.50
2024-01-30T17:35:03.842Z,96445.19
2024-01-30T17:37:05.902Z,96447.31
2024-01-30T17:39:09.445Z,96447.94
2024-01-30T17:41:12.960Z,96447.03
2024-01-30T17:43:15.157Z,96446.81
2024-01-30T17:45:18.088Z,96445.72
2024-01-30T17:47:20.653Z,96450.94
2024-01-30T17:49:22.675Z,96454.91
2024-01-30T17:51:24.553Z,96447.97
2024-01-30T17:53:27.002Z,96449.94
2024-01-30T17:55:29.109Z,96454.56
2024-01-30T17:57:32.675Z,96455.00
2024-01-30T17:59:34.428Z,96446.88
2024-01-30T18:01:37.489Z,96453.78
2024-01-30T18:03:40.767Z,96445.78
2024-01-30T18:05:43.474Z,96443.03
2024-01-30T18:07:45.544Z,96439.66
2024-01-30T18:09:47.462Z,96441.00
2024-01-30T18:11:49.321Z,96446.22
2024-01-30T18:13:54.142Z,96442.25
2024-01-30T18:15:58.322Z,96443.72
2024-01-30T18:18:03.015Z,96436.50
2024-01-30T18:20:09.298Z,96446.44
2024-01-30T18:22:11.163Z,96428.56
2024-01-30T18:24:13.705Z,96436.41
2024-01-30T18:26:17.507Z,96429.06
2024-01-30T18:28:19.517Z,96431.56
2024-01-30T18:30:22.927Z,96436.31
2024-01-30T18:32:27.246Z,96435.78
2024-01-30T18:34:29.211Z,96430.13
2024-01-30T18:36:31.092Z,96429.94
2024-01-30T18:38:33.261Z,96431.69
2024-01-30T18:40:35.266Z,96432.47
2024-01-30T18:42:37.580Z,96429.47
2024-01-30T18:44:40.488Z,96427.16
2024-01-30T18:46:42.461Z,96421.16
2024-01-30T18:48:45.670Z,96429.25
2024-01-30T18:50:49.396Z,96423.97
2024-01-30T18:52:53.717Z,96426.47
2024-01-30T18:54:55.510Z,96420.53
2024-01-30T18:56:57.734Z,96423.81
2024-01-30T18:59:02.907Z,96427.44
2024-01-30T19:01:06.078Z,96427.44
2024-01-30T19:03:08.630Z,96420.06
2024-01-30T19:05:11.530Z,96417.97
2024-01-30T19:07:15.153Z,96422.28
2024-01-30T19:09:21.390Z,96405.66
2024-01-30T19:11:26.013Z,96416.97
2024-01-30T19:13:29.506Z,96422.16
2024-01-30T19:15:34.237Z,96429.69
2024-01-30T19:17:36.417Z,96434.63
2024-01-30T19:19:38.333Z,96427.69
2024-01-30T19:21:40.684Z,96422.78
2024-01-30T19:23:44.345Z,96431.25
2024-01-30T19:25:51.005Z,96418.25
2024-01-30T19:27:54.610Z,96427.94
2024-01-30T19:29:57.804Z,96429.91
2024-01-30T19:31:59.590Z,96424.13
2024-01-30T19:34:02.604Z,96428.38
2024-01-30T19:36:06.350Z,96411.69
2024-01-30T19:38:09.717Z,96423.25
2024-01-30T19:40:12.887Z,96430.56
2024-01-30T19:42:14.639Z,96415.59
2024-01-30T19:44:17.120Z,96419.81
2024-01-30T19:46:20.154Z,96421.03
2024-01-30T19:48:22.305Z,96421.34
2024-01-30T19:50:24.083Z,96418.06
2024-01-30T19:52:26.034Z,96415.34
2024-01-30T19:54:32.146Z,96411.75
2024-01-30T19:56:33.944Z,96414.84
2024-01-30T19:58:38.528Z,96412.94
2024-01-30T20:00:41.043Z,96410.19
2024-01-30T20:02:44.046Z,96406.63
2024-01-30T20:04:48.844Z,96406.59
2024-01-30T20:06:52.106Z,96407.47
2024-01-30T20:08:55.580Z,96413.41
2024-01-30T20:10:57.643Z,96405.63
2024-01-30T20:12:59.505Z,96406.44
2024-01-30T20:15:01.435Z,96403.09
2024-01-30T20:17:07.755Z,96406.81
2024-01-30T20:19:22.533Z,96401.53
2024-01-30T20:21:24.790Z,96409.16
2024-01-30T20:23:29.397Z,96400.69
2024-01-30T20:25:31.098Z,96397.75
2024-01-30T20:27:35.764Z,96410.50
2024-01-30T20:29:38.402Z,96402.94
2024-01-30T20:31:43.999Z,96406.88
2024-01-30T20:33:46.820Z,96410.66
2024-01-30T20:35:48.609Z,96405.13
2024-01-30T20:37:51.304Z,96399.84
2024-01-30T20:39:53.285Z,96403.28
2024-01-30T20:41:55.193Z,96394.44
2024-01-30T20:43:57.176Z,96401.84
2024-01-30T20:46:00.307Z,96401.44
2024-01-30T20:48:02.630Z,96397.09
2024-01-30T20:50:04.877Z,96402.50
2024-01-30T20:52:06.737Z,96397.44
2024-01-30T20:54:10.308Z,96396.41
2024-01-30T20:56:13.944Z,96387.78
2024-01-30T20:58:16.242Z,96391.03
2024-01-30T21:00:18.539Z,96393.22
2024-01-30T21:02:21.367Z,96393.38
2024-01-30T21:04:23.262Z,96392.34
2024-01-30T21:06:26.564Z,96389.53
2024-01-30T21:08:29.544Z,96387.06
2024-01-30T21:10:31.516Z,96387.25
2024-01-30T21:12:34.383Z,96392.22
2024-01-30T21:14:36.147Z,96384.47
2024-01-30T21:16:37.993Z,96391.19
2024-01-30T21:18:44.219Z,96389.44
2024-01-30T21:20:51.269Z,96394.63
2024-01-30T21:22:53.707Z,96386.00
2024-01-30T21:24:55.987Z,96387.59
2024-01-30T21:26:58.888Z,96390.91
2024-01-30T21:29:01.322Z,96391.69
2024-01-30T21:31:09.144Z,96384.00
2024-01-30T21:33:11.180Z,96386.41
2024-01-30T21:35:13.732Z,96386.44
2024-01-30T21:37:16.501Z,96384.06
2024-01-30T21:39:18.984Z,96379.81
2024-01-30T21:41:24.426Z,96377.28
2024-01-30T21:43:26.155Z,96365.28
2024-01-30T21:45:29.197Z,96368.63
2024-01-30T21:47:31.326Z,96364.31
2024-01-30T21:49:33.272Z,96368.09
2024-01-30T21:51:35.302Z,96376.22
2024-01-30T21:53:39.038Z,96359.81
2024-01-30T21:55:42.498Z,96368.28
2024-01-30T21:57:44.637Z,96381.38
2024-01-30T21:59:49.261Z,96376.50
2024-01-30T22:01:51.156Z,96379.16
2024-01-30T22:03:57.741Z,96372.94
2024-01-30T22:06:00.307Z,96379.59
2024-01-30T22:08:02.554Z,96370.84
2024-01-30T22:10:05.445Z,96378.69
2024-01-30T22:12:09.873Z,96376.72
2024-01-30T22:14:11.915Z,96367.00
2024-01-30T22:16:16.823Z,96375.09
2024-01-30T22:18:19.767Z,96366.84
2024-01-30T22:20:21.627Z,96368.19
2024-01-30T22:22:23.503Z,96371.38
2024-01-30T22:24:27.054Z,96369.81
2024-01-30T22:26:32.445Z,96368.00
2024-01-30T22:28:34.380Z,96367.97
2024-01-30T22:30:39.005Z,96360.09
2024-01-30T22:32:40.994Z,96355.53
2024-01-30T22:34:43.021Z,96362.25
2024-01-30T22:36:44.913Z,96360.59
2024-01-30T22:38:46.654Z,96367.28
2024-01-30T22:40:48.695Z,96357.66
2024-01-30T22:42:50.695Z,96361.06
2024-01-30T22:44:53.556Z,96358.72
2024-01-30T22:46:56.150Z,96359.97
2024-01-30T22:48:58.243Z,96361.00
2024-01-30T22:51:00.050Z,96356.56
2024-01-30T22:53:02.036Z,96353.06
2024-01-30T22:55:06.102Z,96349.53
2024-01-30T22:57:08.831Z,96351.09
2024-01-30T22:59:10.644Z,96349.34
2024-01-30T23:01:14.296Z,96352.81
2024-01-30T23:03:16.182Z,96344.47
2024-01-30T23:05:18.101Z,96339.38
2024-01-30T23:07:19.986Z,96334.28
2024-01-30T23:09:23.146Z,96347.13
2024-01-30T23:11:25.001Z,96345.47
2024-01-30T23:13:26.909Z,96351.28
2024-01-30T23:15:31.216Z,96345.09
2024-01-30T23:17:33.762Z,96335.25
2024-01-30T23:19:38.051Z,96342.28
2024-01-30T23:21:39.898Z,96330.81
2024-01-30T23:23:42.846Z,96334.81
2024-01-30T23:25:44.935Z,96331.22
2024-01-30T23:27:48.183Z,96338.84
2024-01-30T23:29:50.299Z,96327.53
2024-01-30T23:31:52.421Z,96333.47
2024-01-30T23:33:54.765Z,96328.94
2024-01-30T23:35:56.701Z,96324.34
2024-01-30T23:37:58.789Z,96328.91
2024-01-30T23:40:01.050Z,96327.31
2024-01-30T23:42:02.864Z,96322.16
2024-01-30T23:44:06.722Z,96321.88
2024-01-30T23:46:12.258Z,96329.13
2024-01-30T23:48:15.841Z,96325.47
2024-01-30T23:50:17.882Z,96322.44
2024-01-30T23:52:19.950Z,96329.09
2024-01-30T23:54:21.880Z,96320.38
2024-01-30T23:56:23.911Z,96317.59
2024-01-30T23:58:25.732Z,96316.50
